createdAt,value
2022-11-26T00:02:24.264Z,2.56
2022-11-26T00:04:55.223Z,2.54
2022-11-26T00:07:26.643Z,2.56
2022-11-26T00:09:55.435Z,2.55
2022-11-26T00:12:29.806Z,2.54
2022-11-26T00:14:58.014Z,2.55
2022-11-26T00:17:25.815Z,2.55
2022-11-26T00:19:53.604Z,2.54
2022-11-26T00:22:25.841Z,2.54
2022-11-26T00:24:54.674Z,2.55
2022-11-26T00:27:25.856Z,2.55
2022-11-26T00:29:54.142Z,2.57
2022-11-26T00:32:24.075Z,2.56
2022-11-26T00:34:52.013Z,2.55
2022-11-26T00:37:22.560Z,2.56
2022-11-26T00:39:50.943Z,2.57
2022-11-26T00:42:19.709Z,2.56
2022-11-26T00:44:48.911Z,2.54
2022-11-26T00:47:16.756Z,2.51
2022-11-26T00:49:44.546Z,2.47
2022-11-26T00:52:25.778Z,2.48
2022-11-26T00:54:53.652Z,2.49
2022-11-26T00:57:21.696Z,2.50
2022-11-26T00:59:50.894Z,2.50
2022-11-26T01:02:18.731Z,2.53
2022-11-26T01:04:46.580Z,2.55
2022-11-26T01:07:14.461Z,2.57
2022-11-26T01:09:45.345Z,2.57
2022-11-26T01:12:14.719Z,2.58
2022-11-26T01:14:42.586Z,2.59
2022-11-26T01:17:13.313Z,2.61
2022-11-26T01:19:41.200Z,2.63
2022-11-26T01:22:16.204Z,2.65
2022-11-26T01:24:44.017Z,2.65
2022-11-26T01:27:13.673Z,2.67
2022-11-26T01:29:41.519Z,2.66
2022-11-26T01:32:12.484Z,2.67
2022-11-26T01:34:40.503Z,2.66
2022-11-26T01:37:13.237Z,2.66
2022-11-26T01:39:41.342Z,2.68
2022-11-26T01:42:25.350Z,2.69
2022-11-26T01:44:53.159Z,2.69
2022-11-26T01:47:28.262Z,2.67
2022-11-26T01:50:33.391Z,2.65
2022-11-26T01:53:04.065Z,2.66
2022-11-26T01:55:37.619Z,2.67
2022-11-26T01:58:08.671Z,2.65
2022-11-26T02:00:36.575Z,2.66
2022-11-26T02:03:06.551Z,2.67
2022-11-26T02:05:41.242Z,2.68
2022-11-26T02:08:10.157Z,2.69
2022-11-26T02:10:38.225Z,2.69
2022-11-26T02:13:06.992Z,2.70
2022-11-26T02:15:45.552Z,2.68
2022-11-26T02:18:15.576Z,2.67
2022-11-26T02:20:53.849Z,2.67
2022-11-26T02:23:37.531Z,2.66
2022-11-26T02:26:37.722Z,2.65
2022-11-26T02:29:16.844Z,2.65
2022-11-26T02:31:51.296Z,2.63
2022-11-26T02:34:25.777Z,2.65
2022-11-26T02:36:59.287Z,2.66
2022-11-26T02:39:29.526Z,2.67
2022-11-26T02:41:58.283Z,2.64
2022-11-26T02:44:32.184Z,2.66
2022-11-26T02:47:05.997Z,2.68
2022-11-26T02:49:36.036Z,2.69
2022-11-26T02:52:06.941Z,2.70
2022-11-26T02:54:37.800Z,2.69
2022-11-26T02:57:10.433Z,2.69
2022-11-26T02:59:39.759Z,2.69
2022-11-26T03:02:15.956Z,2.69
2022-11-26T03:04:47.218Z,2.70
2022-11-26T03:07:15.877Z,2.71
2022-11-26T03:09:52.220Z,2.73
2022-11-26T03:12:20.333Z,2.73
2022-11-26T03:14:48.167Z,2.71
2022-11-26T03:17:17.805Z,2.71
2022-11-26T03:19:46.199Z,2.72
2022-11-26T03:22:15.027Z,2.71
2022-11-26T03:24:43.221Z,2.72
2022-11-26T03:27:11.091Z,2.70
2022-11-26T03:29:38.898Z,2.68
2022-11-26T03:32:07.136Z,2.67
2022-11-26T03:34:36.782Z,2.68
2022-11-26T03:37:04.800Z,2.66
2022-11-26T03:39:32.597Z,2.66
2022-11-26T03:42:00.404Z,2.67
2022-11-26T03:44:28.313Z,2.67
2022-11-26T03:46:56.109Z,2.67
2022-11-26T03:49:23.952Z,2.68
2022-11-26T03:51:53.164Z,2.68
2022-11-26T03:54:20.978Z,2.68
2022-11-26T03:56:48.807Z,2.67
2022-11-26T03:59:16.612Z,2.66
2022-11-26T04:01:45.706Z,2.68
2022-11-26T04:04:13.581Z,2.68
2022-11-26T04:06:41.379Z,2.66
2022-11-26T04:09:10.629Z,2.66
2022-11-26T04:11:38.441Z,2.65
2022-11-26T04:14:06.260Z,2.66
2022-11-26T04:16:34.173Z,2.68
2022-11-26T04:19:02.135Z,2.68
2022-11-26T04:21:30.014Z,2.68
2022-11-26T04:23:57.873Z,2.69
2022-11-26T04:26:27.059Z,2.70
2022-11-26T04:28:54.901Z,2.70
2022-11-26T04:31:22.993Z,2.72
2022-11-26T04:33:50.846Z,2.72
2022-11-26T04:36:18.693Z,2.74
2022-11-26T04:38:46.515Z,2.73
2022-11-26T04:41:14.327Z,2.72
2022-11-26T04:43:43.505Z,2.71
2022-11-26T04:46:11.481Z,2.73
2022-11-26T04:48:39.312Z,2.73
2022-11-26T04:51:07.320Z,2.71
2022-11-26T04:53:35.114Z,2.72
2022-11-26T04:56:03.080Z,2.72
2022-11-26T04:58:30.908Z,2.72
2022-11-26T05:01:00.164Z,2.72
2022-11-26T05:03:28.056Z,2.71
2022-11-26T05:05:55.861Z,2.73
2022-11-26T05:08:23.700Z,2.75
2022-11-26T05:10:54.382Z,2.72
2022-11-26T05:13:22.257Z,2.71
2022-11-26T05:15:50.052Z,2.71
2022-11-26T05:18:19.223Z,2.72
2022-11-26T05:20:47.648Z,2.72
2022-11-26T05:23:15.572Z,2.73
2022-11-26T05:25:43.386Z,2.72
2022-11-26T05:28:11.252Z,2.73
2022-11-26T05:30:39.133Z,2.74
2022-11-26T05:33:06.947Z,2.74
2022-11-26T05:35:36.125Z,2.75
2022-11-26T05:38:03.908Z,2.75
2022-11-26T05:40:31.712Z,2.76
2022-11-26T05:42:59.497Z,2.76
2022-11-26T05:45:27.473Z,2.76
2022-11-26T05:47:55.301Z,2.78
2022-11-26T05:50:23.149Z,2.77
2022-11-26T05:52:52.361Z,2.76
2022-11-26T05:55:20.668Z,2.74
2022-11-26T05:57:48.496Z,2.73
2022-11-26T06:00:17.286Z,2.73
2022-11-26T06:02:45.158Z,2.70
2022-11-26T06:05:13.270Z,2.70
2022-11-26T06:07:44.657Z,2.70
2022-11-26T06:10:14.857Z,2.70
2022-11-26T06:12:43.008Z,2.66
2022-11-26T06:15:11.504Z,2.68
2022-11-26T06:17:39.300Z,2.69
2022-11-26T06:20:08.399Z,2.71
2022-11-26T06:22:38.454Z,2.70
2022-11-26T06:25:07.224Z,2.66
2022-11-26T06:27:37.365Z,2.63
2022-11-26T06:30:06.453Z,2.64
2022-11-26T06:32:34.528Z,2.64
2022-11-26T06:35:02.353Z,2.63
2022-11-26T06:37:30.348Z,2.63
2022-11-26T06:39:58.188Z,2.65
2022-11-26T06:42:26.008Z,2.65
2022-11-26T06:44:59.943Z,2.66
2022-11-26T06:47:28.221Z,2.65
2022-11-26T06:49:56.245Z,2.61
2022-11-26T06:52:24.044Z,2.62
2022-11-26T06:54:51.817Z,2.59
2022-11-26T06:57:19.639Z,2.62
2022-11-26T06:59:47.471Z,2.61
2022-11-26T07:02:16.704Z,2.62
2022-11-26T07:04:44.600Z,2.62
2022-11-26T07:07:12.482Z,2.61
2022-11-26T07:09:40.509Z,2.63
2022-11-26T07:12:08.816Z,2.63
2022-11-26T07:14:36.807Z,2.63
2022-11-26T07:17:04.921Z,2.62
2022-11-26T07:19:34.213Z,2.63
2022-11-26T07:22:04.287Z,2.62
2022-11-26T07:24:32.101Z,2.64
2022-11-26T07:26:59.974Z,2.64
2022-11-26T07:29:28.090Z,2.63
2022-11-26T07:31:56.073Z,2.63
2022-11-26T07:34:23.954Z,2.63
2022-11-26T07:36:57.840Z,2.64
2022-11-26T07:39:26.084Z,2.66
2022-11-26T07:41:53.989Z,2.68
2022-11-26T07:44:21.784Z,2.69
2022-11-26T07:46:49.635Z,2.69
2022-11-26T07:49:17.466Z,2.69
2022-11-26T07:51:45.388Z,2.69
2022-11-26T07:54:14.592Z,2.70
2022-11-26T07:56:42.383Z,2.70
2022-11-26T07:59:11.531Z,2.72
2022-11-26T08:01:39.627Z,2.72
2022-11-26T08:04:08.063Z,2.71
2022-11-26T08:06:35.996Z,2.72
2022-11-26T08:09:04.660Z,2.70
2022-11-26T08:11:35.009Z,2.72
2022-11-26T08:14:04.736Z,2.75
2022-11-26T08:16:32.993Z,2.76
2022-11-26T08:19:02.377Z,2.78
2022-11-26T08:21:30.409Z,2.79
2022-11-26T08:23:58.724Z,2.81
2022-11-26T08:26:33.992Z,2.82
2022-11-26T08:29:05.340Z,2.85
2022-11-26T08:31:34.893Z,2.85
2022-11-26T08:34:04.552Z,2.85
2022-11-26T08:36:32.979Z,2.86
2022-11-26T08:39:01.329Z,2.86
2022-11-26T08:41:29.496Z,2.87
2022-11-26T08:44:06.734Z,2.89
2022-11-26T08:46:37.452Z,2.90
2022-11-26T08:49:05.961Z,2.89
2022-11-26T08:51:33.791Z,2.90
2022-11-26T08:54:01.612Z,2.91
2022-11-26T08:56:29.430Z,2.92
2022-11-26T08:58:57.348Z,2.93
2022-11-26T09:01:27.801Z,2.93
2022-11-26T09:03:59.697Z,2.91
2022-11-26T09:06:29.781Z,2.91
2022-11-26T09:09:17.491Z,2.90
2022-11-26T09:11:48.910Z,2.89
2022-11-26T09:14:18.646Z,2.89
2022-11-26T09:16:46.823Z,2.88
2022-11-26T09:19:17.441Z,2.86
2022-11-26T09:21:45.405Z,2.86
2022-11-26T09:24:13.623Z,2.88
2022-11-26T09:26:41.797Z,2.85
2022-11-26T09:29:11.346Z,2.84
2022-11-26T09:31:54.942Z,2.85
2022-11-26T09:34:28.297Z,2.85
2022-11-26T09:36:56.135Z,2.84
2022-11-26T09:39:23.940Z,2.80
2022-11-26T09:41:58.095Z,2.80
2022-11-26T09:44:54.215Z,2.81
2022-11-26T09:47:23.895Z,2.81
2022-11-26T09:50:00.492Z,2.81
2022-11-26T09:52:34.831Z,2.86
2022-11-26T09:55:09.306Z,2.85
2022-11-26T09:57:42.835Z,2.87
2022-11-26T10:00:23.566Z,2.88
2022-11-26T10:02:53.949Z,2.87
2022-11-26T10:05:26.216Z,2.90
2022-11-26T10:08:08.636Z,2.92
2022-11-26T10:10:42.825Z,2.94
2022-11-26T10:13:22.067Z,2.96
2022-11-26T10:16:00.241Z,2.95
2022-11-26T10:18:37.565Z,2.97
2022-11-26T10:21:27.482Z,2.97
2022-11-26T10:24:05.580Z,2.97
2022-11-26T10:26:36.616Z,2.99
2022-11-26T10:29:22.097Z,3.02
2022-11-26T10:31:51.816Z,3.03
2022-11-26T10:34:23.248Z,3.05
2022-11-26T10:36:53.532Z,3.05
2022-11-26T10:39:21.744Z,3.00
2022-11-26T10:41:49.944Z,3.04
2022-11-26T10:44:35.673Z,3.06
2022-11-26T10:47:23.684Z,3.05
2022-11-26T10:49:52.907Z,3.04
2022-11-26T10:52:26.029Z,3.03
2022-11-26T10:55:17.996Z,3.03
2022-11-26T10:57:50.327Z,3.07
2022-11-26T11:00:31.583Z,3.11
2022-11-26T11:03:00.283Z,3.12
2022-11-26T11:05:29.075Z,3.13
2022-11-26T11:07:58.287Z,3.13
2022-11-26T11:10:27.405Z,3.14
2022-11-26T11:13:12.234Z,3.15
2022-11-26T11:15:41.522Z,3.18
2022-11-26T11:18:18.793Z,3.19
2022-11-26T11:20:55.627Z,3.20
2022-11-26T11:23:45.838Z,3.20
2022-11-26T11:26:21.345Z,3.17
2022-11-26T11:28:51.247Z,3.17
2022-11-26T11:31:21.034Z,3.19
2022-11-26T11:33:49.976Z,3.21
2022-11-26T11:36:29.344Z,3.20
2022-11-26T11:39:01.363Z,3.19
2022-11-26T11:41:33.610Z,3.18
2022-11-26T11:44:07.315Z,3.18
2022-11-26T11:46:53.742Z,3.18
2022-11-26T11:49:33.243Z,3.20
2022-11-26T11:52:13.926Z,3.17
2022-11-26T11:54:50.341Z,3.16
2022-11-26T11:57:32.710Z,3.16
2022-11-26T12:00:13.480Z,3.20
2022-11-26T12:03:10.612Z,3.23
2022-11-26T12:05:48.667Z,3.23
2022-11-26T12:08:33.056Z,3.23
2022-11-26T12:11:20.376Z,3.25
2022-11-26T12:13:53.356Z,3.27
2022-11-26T12:16:26.156Z,3.28
2022-11-26T12:18:59.215Z,3.28
2022-11-26T12:21:33.879Z,3.27
2022-11-26T12:24:08.594Z,3.25
2022-11-26T12:26:42.319Z,3.23
2022-11-26T12:29:15.281Z,3.24
2022-11-26T12:31:46.681Z,3.23
2022-11-26T12:34:30.379Z,3.25
2022-11-26T12:37:03.292Z,3.22
2022-11-26T12:39:40.857Z,3.22
2022-11-26T12:42:18.016Z,3.21
2022-11-26T12:44:49.920Z,3.21
2022-11-26T12:47:25.167Z,3.19
2022-11-26T12:50:04.693Z,3.20
2022-11-26T12:52:40.167Z,3.21
2022-11-26T12:55:18.398Z,3.22
2022-11-26T12:57:52.743Z,3.25
2022-11-26T13:00:26.208Z,3.25
2022-11-26T13:02:56.461Z,3.26
2022-11-26T13:05:32.969Z,3.24
2022-11-26T13:08:19.560Z,3.23
2022-11-26T13:11:08.587Z,3.27
2022-11-26T13:13:43.723Z,3.24
2022-11-26T13:16:21.178Z,3.25
2022-11-26T13:18:52.103Z,3.22
2022-11-26T13:21:44.983Z,3.20
2022-11-26T13:24:34.588Z,3.23
2022-11-26T13:27:15.989Z,3.24
2022-11-26T13:30:05.433Z,3.20
2022-11-26T13:33:19.578Z,3.23
2022-11-26T13:36:19.098Z,3.22
2022-11-26T13:39:07.327Z,3.22
2022-11-26T13:41:59.878Z,3.23
2022-11-26T13:45:08.796Z,3.20
2022-11-26T13:47:45.407Z,3.18
2022-11-26T13:50:18.436Z,3.17
2022-11-26T13:52:52.154Z,3.17
2022-11-26T13:55:23.919Z,3.15
2022-11-26T13:58:00.192Z,3.14
2022-11-26T14:00:30.720Z,3.11
2022-11-26T14:03:00.862Z,3.10
2022-11-26T14:06:09.826Z,3.08
2022-11-26T14:08:39.889Z,3.07
2022-11-26T14:11:08.243Z,3.05
2022-11-26T14:13:36.261Z,3.06
2022-11-26T14:16:06.604Z,3.01
2022-11-26T14:19:00.794Z,3.02
2022-11-26T14:21:31.549Z,3.03
2022-11-26T14:24:01.355Z,3.02
2022-11-26T14:26:34.176Z,2.99
2022-11-26T14:29:18.013Z,2.99
2022-11-26T14:31:52.214Z,2.98
2022-11-26T14:34:29.635Z,2.97
2022-11-26T14:37:00.359Z,2.96
2022-11-26T14:39:29.367Z,2.96
2022-11-26T14:42:05.269Z,2.93
2022-11-26T14:44:34.582Z,2.92
2022-11-26T14:47:11.839Z,2.90
2022-11-26T14:49:42.679Z,2.91
2022-11-26T14:52:20.575Z,2.92
2022-11-26T14:54:51.773Z,2.92
2022-11-26T14:57:25.143Z,2.90
2022-11-26T14:59:57.611Z,2.89
2022-11-26T15:02:27.657Z,2.88
2022-11-26T15:05:00.289Z,2.88
2022-11-26T15:07:30.870Z,2.90
2022-11-26T15:10:03.968Z,2.89
2022-11-26T15:12:32.828Z,2.85
2022-11-26T15:15:03.249Z,2.83
2022-11-26T15:17:34.081Z,2.87
2022-11-26T15:20:05.414Z,2.86
2022-11-26T15:22:38.442Z,2.86
2022-11-26T15:25:13.601Z,2.87
2022-11-26T15:27:49.380Z,2.84
2022-11-26T15:30:22.059Z,2.84
2022-11-26T15:32:56.844Z,2.82
2022-11-26T15:35:24.758Z,2.81
2022-11-26T15:37:54.048Z,2.80
2022-11-26T15:40:24.561Z,2.81
2022-11-26T15:42:58.685Z,2.83
2022-11-26T15:45:36.124Z,2.81
2022-11-26T15:48:05.314Z,2.82
2022-11-26T15:50:36.476Z,2.79
2022-11-26T15:53:08.530Z,2.80
2022-11-26T15:55:38.446Z,2.80
2022-11-26T15:58:09.885Z,2.78
2022-11-26T16:00:39.688Z,2.78
2022-11-26T16:03:35.900Z,2.77
2022-11-26T16:06:06.625Z,2.76
2022-11-26T16:08:36.173Z,2.77
2022-11-26T16:11:09.079Z,2.76
2022-11-26T16:13:37.763Z,2.78
2022-11-26T16:16:10.883Z,2.79
2022-11-26T16:18:41.120Z,2.79
2022-11-26T16:21:09.783Z,2.73
2022-11-26T16:23:39.059Z,2.76
2022-11-26T16:26:09.974Z,2.75
2022-11-26T16:28:37.829Z,2.76
2022-11-26T16:31:05.645Z,2.77
2022-11-26T16:33:33.459Z,2.71
2022-11-26T16:36:01.507Z,2.65
2022-11-26T16:38:30.140Z,2.64
2022-11-26T16:40:59.341Z,2.65
2022-11-26T16:43:27.332Z,2.66
2022-11-26T16:45:56.648Z,2.68
2022-11-26T16:48:26.379Z,2.63
2022-11-26T16:50:55.365Z,2.59
2022-11-26T16:53:23.819Z,2.57
2022-11-26T16:55:53.285Z,2.59
2022-11-26T16:58:28.165Z,2.60
2022-11-26T17:00:57.595Z,2.60
2022-11-26T17:03:27.537Z,2.58
2022-11-26T17:05:59.365Z,2.46
2022-11-26T17:08:29.477Z,2.45
2022-11-26T17:10:57.563Z,2.41
2022-11-26T17:13:29.573Z,2.41
2022-11-26T17:15:57.652Z,2.38
2022-11-26T17:18:28.468Z,2.37
2022-11-26T17:20:56.277Z,2.36
2022-11-26T17:23:24.100Z,2.32
2022-11-26T17:25:54.371Z,2.28
2022-11-26T17:28:23.303Z,2.23
2022-11-26T17:30:52.630Z,2.22
2022-11-26T17:33:20.483Z,2.21
2022-11-26T17:35:49.126Z,2.19
2022-11-26T17:38:19.394Z,2.16
2022-11-26T17:40:48.074Z,2.17
2022-11-26T17:43:16.996Z,2.16
2022-11-26T17:45:45.085Z,2.16
2022-11-26T17:48:15.195Z,2.15
2022-11-26T17:50:42.992Z,2.12
2022-11-26T17:53:10.805Z,2.10
2022-11-26T17:55:39.627Z,2.08
2022-11-26T17:58:07.529Z,2.08
2022-11-26T18:00:35.441Z,2.08
2022-11-26T18:03:03.396Z,2.04
2022-11-26T18:05:32.777Z,2.02
2022-11-26T18:08:00.658Z,2.02
2022-11-26T18:10:28.518Z,2.02
2022-11-26T18:12:56.468Z,2.02
2022-11-26T18:15:26.757Z,1.99
2022-11-26T18:17:55.753Z,2.03
2022-11-26T18:20:25.836Z,2.03
2022-11-26T18:22:57.211Z,2.04
2022-11-26T18:25:25.903Z,2.05
2022-11-26T18:27:53.807Z,2.04
2022-11-26T18:30:22.090Z,2.01
2022-11-26T18:32:49.977Z,2.02
2022-11-26T18:35:18.283Z,1.99
2022-11-26T18:37:46.212Z,1.97
2022-11-26T18:40:18.001Z,2.02
2022-11-26T18:42:46.307Z,2.01
2022-11-26T18:45:16.605Z,2.01
2022-11-26T18:47:44.743Z,2.02
2022-11-26T18:50:13.783Z,2.05
2022-11-26T18:52:41.571Z,2.08
2022-11-26T18:55:09.892Z,2.11
2022-11-26T18:57:39.141Z,2.11
2022-11-26T19:00:09.094Z,2.10
2022-11-26T19:02:37.750Z,2.10
2022-11-26T19:05:06.140Z,2.11
2022-11-26T19:07:34.481Z,2.13
2022-11-26T19:10:02.374Z,2.13
2022-11-26T19:12:30.221Z,2.09
2022-11-26T19:14:59.450Z,2.10
2022-11-26T19:17:27.323Z,2.11
2022-11-26T19:19:55.198Z,2.11
2022-11-26T19:22:23.033Z,2.10
2022-11-26T19:24:50.862Z,2.12
2022-11-26T19:27:18.654Z,2.12
2022-11-26T19:29:46.497Z,2.12
2022-11-26T19:32:15.677Z,2.11
2022-11-26T19:34:43.511Z,2.11
2022-11-26T19:37:11.378Z,2.13
2022-11-26T19:39:39.499Z,2.11
2022-11-26T19:42:07.696Z,2.11
2022-11-26T19:44:36.445Z,2.10
2022-11-26T19:47:04.402Z,2.11
2022-11-26T19:49:34.037Z,2.13
2022-11-26T19:52:02.081Z,2.10
2022-11-26T19:54:30.009Z,2.10
2022-11-26T19:56:57.861Z,2.09
2022-11-26T19:59:25.737Z,2.10
2022-11-26T20:01:55.868Z,2.13
2022-11-26T20:04:27.446Z,2.16
2022-11-26T20:06:56.892Z,2.16
2022-11-26T20:09:24.768Z,2.17
2022-11-26T20:11:52.817Z,2.16
2022-11-26T20:14:20.652Z,2.17
2022-11-26T20:16:48.586Z,2.18
2022-11-26T20:19:16.653Z,2.20
2022-11-26T20:21:44.539Z,2.19
2022-11-26T20:24:16.649Z,2.17
2022-11-26T20:26:47.105Z,2.12
2022-11-26T20:29:17.003Z,2.15
2022-11-26T20:31:47.870Z,2.16
2022-11-26T20:34:16.733Z,2.18
2022-11-26T20:36:45.159Z,2.15
2022-11-26T20:39:16.044Z,2.15
2022-11-26T20:41:44.453Z,2.16
2022-11-26T20:44:13.652Z,2.20
2022-11-26T20:46:41.647Z,2.16
2022-11-26T20:49:10.953Z,2.17
2022-11-26T20:51:39.480Z,2.20
2022-11-26T20:54:07.460Z,2.20
2022-11-26T20:56:36.685Z,2.18
2022-11-26T20:59:04.526Z,2.22
2022-11-26T21:01:32.700Z,2.23
2022-11-26T21:04:00.704Z,2.21
2022-11-26T21:06:30.650Z,2.22
2022-11-26T21:08:59.932Z,2.20
2022-11-26T21:11:27.959Z,2.19
2022-11-26T21:13:59.799Z,2.23
2022-11-26T21:16:28.603Z,2.23
2022-11-26T21:18:57.196Z,2.24
2022-11-26T21:21:26.397Z,2.27
2022-11-26T21:23:54.676Z,2.27
2022-11-26T21:26:25.050Z,2.28
2022-11-26T21:28:53.598Z,2.28
2022-11-26T21:31:23.453Z,2.27
2022-11-26T21:33:56.072Z,2.26
2022-11-26T21:36:24.725Z,2.26
2022-11-26T21:38:52.556Z,2.29
2022-11-26T21:41:21.262Z,2.30
2022-11-26T21:43:49.621Z,2.28
2022-11-26T21:46:19.489Z,2.26
2022-11-26T21:48:51.609Z,2.25
2022-11-26T21:51:20.540Z,2.26
2022-11-26T21:53:49.934Z,2.29
2022-11-26T21:56:20.057Z,2.30
2022-11-26T21:58:47.901Z,2.31
2022-11-26T22:01:17.607Z,2.29
2022-11-26T22:03:48.962Z,2.26
2022-11-26T22:06:17.330Z,2.28
2022-11-26T22:08:47.403Z,2.26
2022-11-26T22:11:17.537Z,2.29
2022-11-26T22:13:45.855Z,2.32
2022-11-26T22:16:16.404Z,2.34
2022-11-26T22:18:45.979Z,2.33
2022-11-26T22:21:17.784Z,2.32
2022-11-26T22:23:45.931Z,2.32
2022-11-26T22:26:13.995Z,2.32
2022-11-26T22:28:42.575Z,2.32
2022-11-26T22:31:12.755Z,2.31
2022-11-26T22:33:40.756Z,2.24
2022-11-26T22:36:09.209Z,2.30
2022-11-26T22:38:39.774Z,2.32
2022-11-26T22:41:09.533Z,2.29
2022-11-26T22:43:37.581Z,2.29
2022-11-26T22:46:06.911Z,2.29
2022-11-26T22:48:35.754Z,2.33
2022-11-26T22:51:04.233Z,2.30
2022-11-26T22:53:35.201Z,2.27
2022-11-26T22:56:05.449Z,2.27
2022-11-26T22:58:34.372Z,2.26
2022-11-26T23:01:05.262Z,2.27
2022-11-26T23:03:35.468Z,2.25
2022-11-26T23:06:03.610Z,2.18
2022-11-26T23:08:31.454Z,2.22
2022-11-26T23:10:59.722Z,2.22
2022-11-26T23:13:29.003Z,2.21
2022-11-26T23:15:56.823Z,2.25
2022-11-26T23:18:25.026Z,2.25
2022-11-26T23:21:02.437Z,2.27
2022-11-26T23:23:30.259Z,2.27
2022-11-26T23:25:58.074Z,2.26
2022-11-26T23:28:25.909Z,2.26
2022-11-26T23:31:01.322Z,2.31
2022-11-26T23:33:29.831Z,2.32
2022-11-26T23:35:58.375Z,2.33
2022-11-26T23:38:26.322Z,2.31
2022-11-26T23:40:55.050Z,2.31
2022-11-26T23:43:22.926Z,2.28
2022-11-26T23:45:51.140Z,2.28
2022-11-26T23:48:20.392Z,2.31
2022-11-26T23:50:48.194Z,2.31
2022-11-26T23:53:16.019Z,2.33
2022-11-26T23:55:43.842Z,2.33
2022-11-26T23:58:11.642Z,2.34
